Time;durP1;ratioP1;P1;durP2;ratioP2;P2;SDS_P1;SDS_P2;PMS_P1;PMS_P2;Temp;Humidity;BMP_temperature;BMP_pressure;BME280_temperature;BME280_humidity;BME280_pressure;Samples;Min_cycle;Max_cycle;Signal;HPM_P1;HPM_P2
2021/06/25 07:04:36;;;;;;;601.80;566.33;;;15.50;99.90;;;;;;5091211;27;20574;-70
2021/06/25 07:07:01;;;;;;;636.90;598.90;;;15.50;99.90;;;;;;5091140;28;20167;-70
2021/06/25 07:09:27;;;;;;;652.47;612.92;;;15.40;99.90;;;;;;5091383;28;20251;-69
2021/06/25 07:11:52;;;;;;;601.45;566.55;;;15.50;99.90;;;;;;5091097;28;20168;-69
2021/06/25 07:14:18;;;;;;;645.50;606.47;;;15.50;99.90;;;;;;5091090;28;20255;-72
2021/06/25 07:16:44;;;;;;;661.75;621.83;;;15.40;99.90;;;;;;5089874;28;20520;-71
2021/06/25 07:19:09;;;;;;;680.63;638.95;;;15.40;99.90;;;;;;5091037;28;20225;-72
2021/06/25 07:21:35;;;;;;;686.08;643.97;;;15.40;99.90;;;;;;5089816;28;20168;-72
2021/06/25 07:24:02;;;;;;;689.80;647.38;;;15.40;99.90;;;;;;5090816;28;20690;-72
2021/06/25 07:26:28;;;;;;;696.08;653.08;;;15.40;99.90;;;;;;5090853;28;20167;-72
2021/06/25 07:28:54;;;;;;;691.15;648.72;;;15.40;99.90;;;;;;5090792;28;20187;-72
2021/06/25 07:31:21;;;;;;;701.90;658.25;;;15.50;99.90;;;;;;5090665;28;20199;-72
2021/06/25 07:33:47;;;;;;;707.38;663.42;;;15.50;99.90;;;;;;5090772;28;20301;-72
2021/06/25 07:36:14;;;;;;;696.08;653.03;;;15.60;99.90;;;;;;5089470;28;20168;-72
2021/06/25 07:38:39;;;;;;;710.72;666.63;;;15.70;99.90;;;;;;5090602;28;20175;-72
2021/06/25 07:41:05;;;;;;;727.13;681.78;;;15.80;99.90;;;;;;5090565;28;20164;-70
2021/06/25 07:43:30;;;;;;;734.28;688.20;;;15.80;99.90;;;;;;5089131;28;20595;-70
2021/06/25 07:45:56;;;;;;;743.83;697.38;;;15.90;99.90;;;;;;5090360;28;20164;-70
2021/06/25 07:48:22;;;;;;;755.42;707.95;;;16.10;99.90;;;;;;5090473;28;20637;-70
2021/06/25 07:50:47;;;;;;;762.17;713.97;;;16.10;99.90;;;;;;5090403;28;20175;-72
2021/06/25 07:53:13;;;;;;;762.85;714.78;;;16.10;99.90;;;;;;5090226;28;20168;-72
2021/06/25 07:55:42;;;;;;;780.53;730.75;;;16.20;99.90;;;;;;5090231;28;20526;-72
2021/06/25 07:58:11;;;;;;;762.92;714.53;;;16.30;99.90;;;;;;5090249;28;20172;-72
2021/06/25 08:00:38;;;;;;;719.38;674.08;;;16.30;99.90;;;;;;5090141;28;20182;-72
2021/06/25 08:03:03;;;;;;;753.38;705.72;;;16.20;99.90;;;;;;5089979;28;20596;-70
2021/06/25 08:05:29;;;;;;;739.47;693.08;;;16.30;99.90;;;;;;5090130;28;20172;-70
2021/06/25 08:07:54;;;;;;;757.00;708.92;;;16.30;99.90;;;;;;5090091;28;20168;-71
2021/06/25 08:10:20;;;;;;;755.22;707.17;;;16.40;99.90;;;;;;5089947;28;20616;-70
2021/06/25 08:12:46;;;;;;;795.53;744.45;;;16.40;99.90;;;;;;5089817;28;20179;-70
2021/06/25 08:15:12;;;;;;;811.08;758.15;;;16.50;99.90;;;;;;5080660;28;20179;-70
2021/06/25 08:17:38;;;;;;;789.92;739.03;;;16.60;99.90;;;;;;5075189;28;20550;-70
2021/06/25 08:20:04;;;;;;;816.55;763.20;;;16.70;99.90;;;;;;5076275;28;20245;-66
2021/06/25 08:22:30;;;;;;;803.97;751.67;;;16.80;99.90;;;;;;5076265;28;20548;-66
2021/06/25 08:24:56;;;;;;;816.63;762.90;;;16.80;99.90;;;;;;5076259;28;20161;-66
2021/06/25 08:27:21;;;;;;;840.75;784.75;;;16.90;99.90;;;;;;5075527;28;20167;-66
2021/06/25 08:29:47;;;;;;;848.10;791.05;;;17.00;99.90;;;;;;5075446;28;20184;-67
2021/06/25 08:32:13;;;;;;;843.17;786.75;;;17.20;99.90;;;;;;5076116;28;20176;-67
2021/06/25 08:34:38;;;;;;;829.63;774.85;;;17.20;99.90;;;;;;5076019;28;20169;-66
2021/06/25 08:37:04;;;;;;;872.35;813.03;;;17.20;99.90;;;;;;5076189;28;20165;-70
2021/06/25 08:39:30;;;;;;;848.00;791.00;;;17.20;99.90;;;;;;5076078;28;20480;-70
2021/06/25 08:42:02;;;;;;;833.00;777.35;;;17.20;99.90;;;;;;5076055;28;20164;-70
2021/06/25 08:44:31;;;;;;;847.10;790.00;;;17.10;99.90;;;;;;5075805;28;20200;-70
2021/06/25 08:46:56;;;;;;;849.00;792.05;;;17.30;99.90;;;;;;5075809;28;20164;-69
2021/06/25 08:49:26;;;;;;;851.15;793.65;;;17.30;99.90;;;;;;5075713;28;20503;-70
2021/06/25 08:51:52;;;;;;;846.83;789.67;;;17.30;99.90;;;;;;5075738;28;20213;-69
2021/06/25 08:54:18;;;;;;;840.22;783.75;;;17.20;99.90;;;;;;5076055;28;20621;-70
2021/06/25 08:56:44;;;;;;;844.13;787.15;;;17.30;99.90;;;;;;5075676;28;20176;-67
2021/06/25 08:59:09;;;;;;;838.72;782.30;;;17.40;99.90;;;;;;5075653;28;20168;-70
2021/06/25 09:01:36;;;;;;;846.83;789.67;;;17.40;99.90;;;;;;5073917;28;20176;-71
2021/06/25 09:04:04;;;;;;;829.03;773.70;;;17.50;99.90;;;;;;5074484;28;20216;-69
2021/06/25 09:06:32;;;;;;;824.30;769.33;;;17.40;99.90;;;;;;5074656;28;20218;-68
2021/06/25 09:09:13;;;;;;;856.00;798.13;;;17.50;99.90;;;;;;5075126;28;20167;-68
2021/06/25 09:11:41;;;;;;;792.85;741.08;;;17.50;99.90;;;;;;5075347;28;20179;-69
2021/06/25 09:14:06;;;;;;;821.15;766.63;;;17.50;99.90;;;;;;5075375;28;20226;-68
2021/06/25 09:16:39;;;;;;;819.95;765.45;;;17.50;99.90;;;;;;5075186;28;20633;-71
2021/06/25 09:19:12;;;;;;;863.75;804.38;;;17.50;99.90;;;;;;5075229;28;20183;-72
2021/06/25 09:21:42;;;;;;;855.90;797.38;;;17.70;99.90;;;;;;5074734;28;20183;-71
2021/06/25 09:24:25;;;;;;;889.45;827.10;;;17.90;99.90;;;;;;5074724;28;20247;-71
2021/06/25 09:26:58;;;;;;;868.80;808.50;;;18.00;99.90;;;;;;5074166;28;20167;-72
2021/06/25 09:29:27;;;;;;;921.35;854.25;;;18.30;99.90;;;;;;5074972;28;20184;-72
2021/06/25 09:32:04;;;;;;;973.97;899.25;;;18.50;99.90;;;;;;5074614;28;20251;-74
2021/06/25 09:34:39;;;;;;;931.33;862.50;;;18.70;99.90;;;;;;5074793;28;20172;-70
2021/06/25 09:37:07;;;;;;;966.20;892.85;;;18.80;99.90;;;;;;5074707;28;20511;-70
2021/06/25 09:39:33;;;;;;;974.63;899.47;;;18.90;99.90;;;;;;5074579;28;20172;-69
2021/06/25 09:41:58;;;;;;;954.50;881.67;;;18.90;99.90;;;;;;5074547;28;20180;-73
2021/06/25 09:44:24;;;;;;;1014.83;934.63;;;18.80;99.90;;;;;;5074601;28;20195;-73
2021/06/25 09:46:52;;;;;;;1073.43;984.13;;;19.00;99.90;;;;;;5074340;28;20156;-73
2021/06/25 09:49:30;;;;;;;1058.07;971.95;;;19.10;99.90;;;;;;5074365;28;20170;-70
2021/06/25 09:51:59;;;;;;;993.50;917.13;;;19.20;99.90;;;;;;5074389;28;20636;-67
2021/06/25 09:54:27;;;;;;;993.55;917.72;;;19.40;99.90;;;;;;5074308;28;20183;-66
2021/06/25 10:02:24;;;;;;;1082.47;993.80;;;19.60;99.90;;;;;;5074389;28;20233;-71
2021/06/25 10:04:55;;;;;;;1043.03;961.78;;;19.60;99.90;;;;;;5073992;28;20195;-71
2021/06/25 10:07:27;;;;;;;959.45;889.88;;;19.60;99.90;;;;;;5074125;28;20250;-72
2021/06/25 10:09:55;;;;;;;1009.13;932.83;;;19.70;99.90;;;;;;5074323;28;20167;-72
2021/06/25 10:12:22;;;;;;;990.92;916.80;;;19.70;99.90;;;;;;5074149;28;20190;-72
2021/06/25 10:14:49;;;;;;;963.88;893.97;;;19.50;99.90;;;;;;5074233;28;20194;-72
2021/06/25 10:17:16;;;;;;;1017.65;939.17;;;19.50;99.90;;;;;;5074191;28;20191;-72
2021/06/25 10:19:42;;;;;;;1020.42;943.25;;;19.50;99.90;;;;;;5074052;28;20164;-72
2021/06/25 10:22:10;;;;;;;950.30;881.75;;;19.50;99.90;;;;;;5074093;28;20160;-72
2021/06/25 10:24:36;;;;;;;950.40;881.47;;;19.40;99.90;;;;;;5073963;28;20175;-72
2021/06/25 10:27:04;;;;;;;982.90;909.13;;;19.30;99.90;;;;;;5073956;28;20171;-72
2021/06/25 10:29:36;;;;;;;969.30;897.70;;;19.20;99.90;;;;;;5072578;28;20560;-72
2021/06/25 10:32:07;;;;;;;946.67;878.05;;;19.30;99.90;;;;;;5074027;28;20168;-70
2021/06/25 10:34:34;;;;;;;985.80;911.85;;;19.20;99.90;;;;;;5072558;28;20188;-68
2021/06/25 10:37:03;;;;;;;1011.30;933.88;;;19.30;99.90;;;;;;5073602;28;20701;-70
2021/06/25 10:39:31;;;;;;;960.90;891.38;;;19.50;99.90;;;;;;5074027;28;20176;-71
2021/06/25 10:41:58;;;;;;;916.00;851.33;;;19.60;99.90;;;;;;5073872;28;20163;-74
2021/06/25 10:44:56;;;;;;;959.83;889.80;;;19.60;99.90;;;;;;5073764;28;20262;-74
2021/06/25 10:47:29;;;;;;;932.08;864.72;;;19.60;99.90;;;;;;5072409;28;20195;-73
2021/06/25 10:52:36;;;;;;;951.47;882.38;;;19.50;99.90;;;;;;5073566;28;20175;-72
2021/06/25 10:55:13;;;;;;;1009.72;933.33;;;19.60;99.90;;;;;;5073608;28;20163;-72
2021/06/25 10:57:54;;;;;;;999.03;925.03;;;19.80;99.90;;;;;;5072451;28;20160;-71
2021/06/25 11:00:37;;;;;;;970.80;900.70;;;20.00;99.90;;;;;;5073563;28;20160;-72
2021/06/25 11:03:03;;;;;;;977.03;906.00;;;20.10;99.90;;;;;;5073274;28;20333;-72
2021/06/25 11:05:35;;;;;;;994.03;921.15;;;20.10;99.90;;;;;;5073530;28;20588;-71
2021/06/25 11:08:20;;;;;;;918.45;855.15;;;20.20;99.90;;;;;;5073447;28;20202;-72
2021/06/25 11:10:57;;;;;;;942.25;876.25;;;20.30;99.90;;;;;;5073564;28;20596;-72
2021/06/25 11:13:24;;;;;;;971.55;902.55;;;20.40;99.90;;;;;;5073384;28;20194;-72
2021/06/25 11:15:59;;;;;;;930.85;866.72;;;20.50;99.90;;;;;;5073439;28;20245;-71
2021/06/25 11:18:27;;;;;;;844.85;789.65;;;20.40;99.90;;;;;;5073279;28;20250;-71
2021/06/25 11:21:03;;;;;;;914.45;851.55;;;20.30;99.90;;;;;;5073364;28;20168;-72
2021/06/25 11:23:44;;;;;;;919.58;856.53;;;20.20;99.90;;;;;;5073427;28;20175;-73
2021/06/25 11:26:19;;;;;;;945.55;879.38;;;20.20;99.90;;;;;;5073461;28;20172;-73
2021/06/25 11:28:45;;;;;;;938.25;872.80;;;20.30;99.90;;;;;;5073064;28;20213;-72
2021/06/25 11:31:17;;;;;;;936.40;871.85;;;20.20;99.90;;;;;;5073269;28;20306;-72
2021/06/25 11:33:55;;;;;;;854.25;797.67;;;20.20;99.90;;;;;;5071986;28;20210;-72
2021/06/25 11:36:51;;;;;;;857.88;801.38;;;20.20;99.90;;;;;;5073179;28;20164;-72
2021/06/25 11:39:17;;;;;;;824.90;770.83;;;20.20;99.90;;;;;;5073323;28;20168;-72
2021/06/25 11:41:52;;;;;;;876.28;817.38;;;20.20;99.90;;;;;;5073396;28;20226;-72
2021/06/25 11:44:17;;;;;;;755.50;707.72;;;20.30;99.90;;;;;;5073160;28;20205;-72
2021/06/25 11:46:53;;;;;;;903.13;841.72;;;20.30;99.90;;;;;;5073195;28;20170;-72
2021/06/25 11:49:18;;;;;;;888.95;828.92;;;20.40;99.90;;;;;;5073469;28;20167;-73
2021/06/25 11:51:45;;;;;;;897.70;836.42;;;20.60;99.90;;;;;;5076996;28;20164;-71
2021/06/25 11:54:13;;;;;;;863.28;806.83;;;20.80;99.90;;;;;;5076864;28;20199;-69
2021/06/25 11:56:44;;;;;;;774.72;726.17;;;20.90;99.90;;;;;;5076892;28;20164;-70
2021/06/25 11:59:10;;;;;;;831.25;777.90;;;20.80;99.90;;;;;;5075658;28;20167;-72
2021/06/25 12:01:49;;;;;;;848.15;793.03;;;20.70;99.90;;;;;;5076662;28;20171;-71
2021/06/25 12:04:14;;;;;;;823.75;770.80;;;20.70;99.90;;;;;;5075255;28;20318;-70
2021/06/25 12:06:51;;;;;;;722.78;677.85;;;20.90;99.90;;;;;;5076697;28;20246;-71
2021/06/25 12:09:17;;;;;;;814.78;762.17;;;20.90;99.90;;;;;;5076494;28;20259;-71
2021/06/25 12:11:43;;;;;;;738.45;692.72;;;20.90;99.90;;;;;;5075635;28;20204;-71
2021/06/25 12:14:10;;;;;;;817.53;764.65;;;21.00;99.90;;;;;;5075177;28;20337;-71
2021/06/25 12:16:39;;;;;;;770.70;722.70;;;21.10;99.90;;;;;;5075422;28;20590;-71
2021/06/25 12:19:10;;;;;;;696.58;654.35;;;21.30;99.90;;;;;;5076269;28;20640;-71
2021/06/25 12:21:36;;;;;;;759.80;712.13;;;21.20;99.90;;;;;;5076324;28;20505;-71
2021/06/25 12:24:02;;;;;;;785.28;735.88;;;21.10;99.90;;;;;;5076261;28;20171;-72
2021/06/25 12:26:29;;;;;;;611.08;575.40;;;21.10;99.90;;;;;;5076168;28;20217;-71
2021/06/25 12:29:03;;;;;;;729.30;684.45;;;21.00;99.90;;;;;;5076171;28;20667;-70
2021/06/25 12:31:32;;;;;;;710.83;667.33;;;21.00;99.90;;;;;;5076207;28;20253;-70
2021/06/25 12:34:17;;;;;;;800.88;750.00;;;21.10;99.90;;;;;;5074879;28;20203;-69
2021/06/25 12:36:43;;;;;;;728.95;683.85;;;21.30;99.90;;;;;;5075022;28;20179;-70
2021/06/25 12:39:11;;;;;;;729.88;684.83;;;21.50;99.90;;;;;;5075836;28;20216;-71
2021/06/25 12:41:44;;;;;;;645.80;607.38;;;21.60;99.90;;;;;;5076132;28;20261;-72
2021/06/25 12:44:11;;;;;;;740.40;694.67;;;21.60;99.90;;;;;;5076046;28;20168;-71
2021/06/25 12:46:38;;;;;;;755.83;708.88;;;21.60;99.90;;;;;;5074783;28;20172;-71
2021/06/25 12:49:05;;;;;;;686.05;644.60;;;21.60;99.90;;;;;;5075896;28;20178;-70
2021/06/25 12:51:34;;;;;;;644.13;605.85;;;21.50;99.90;;;;;;5075820;28;20172;-71
2021/06/25 12:54:00;;;;;;;655.97;617.08;;;21.30;99.90;;;;;;5075674;28;20573;-72
2021/06/25 12:56:38;;;;;;;655.97;616.83;;;21.20;99.90;;;;;;5075863;28;20168;-72
2021/06/25 12:59:19;;;;;;;747.88;701.42;;;21.00;99.90;;;;;;5075860;28;20163;-72
2021/06/25 13:01:50;;;;;;;691.55;649.72;;;21.20;99.90;;;;;;5075618;28;20172;-71
2021/06/25 13:04:18;;;;;;;767.25;719.00;;;21.30;99.90;;;;;;5075270;28;20238;-72
2021/06/25 13:06:48;;;;;;;721.33;677.05;;;21.30;99.90;;;;;;5075530;28;20175;-72
2021/06/25 13:09:27;;;;;;;653.22;614.15;;;21.50;99.90;;;;;;5075588;28;20187;-72
2021/06/25 13:12:06;;;;;;;673.33;633.10;;;21.50;99.90;;;;;;5074202;28;20495;-72
2021/06/25 13:14:32;;;;;;;682.03;641.03;;;21.50;99.90;;;;;;5075416;28;20546;-72
2021/06/25 13:17:00;;;;;;;778.53;729.42;;;21.40;99.90;;;;;;5075449;28;20168;-71
2021/06/25 13:19:33;;;;;;;567.42;535.60;;;21.60;99.90;;;;;;5075320;28;20182;-71
2021/06/25 13:22:12;;;;;;;722.90;678.47;;;21.60;99.90;;;;;;5075544;28;20221;-72
2021/06/25 13:24:49;;;;;;;669.53;629.28;;;21.60;99.90;;;;;;5074176;28;20174;-72
2021/06/25 13:27:14;;;;;;;551.78;521.20;;;21.60;99.90;;;;;;5075089;28;20168;-71
2021/06/25 13:29:58;;;;;;;612.53;577.00;;;21.50;99.90;;;;;;5074942;28;20192;-71
2021/06/25 13:32:30;;;;;;;521.25;492.90;;;21.60;99.90;;;;;;5075085;28;20164;-70
2021/06/25 13:35:05;;;;;;;713.20;669.53;;;21.50;99.90;;;;;;5074942;28;20164;-71
2021/06/25 13:37:47;;;;;;;653.38;614.22;;;21.60;99.90;;;;;;5074815;28;20612;-70
2021/06/25 13:40:20;;;;;;;657.42;618.00;;;21.80;99.90;;;;;;5074789;28;20163;-70
2021/06/25 13:43:06;;;;;;;568.58;537.17;;;22.10;99.90;;;;;;5074797;28;20168;-70
2021/06/25 13:45:32;;;;;;;526.20;497.95;;;22.10;99.90;;;;;;5074677;28;20176;-71
2021/06/25 13:47:58;;;;;;;588.15;554.53;;;22.00;99.90;;;;;;5074751;28;20510;-71
2021/06/25 13:50:23;;;;;;;586.90;553.67;;;22.10;99.90;;;;;;5074729;28;20191;-70
2021/06/25 13:52:52;;;;;;;636.22;598.42;;;22.30;99.90;;;;;;5074618;28;20223;-70
2021/06/25 13:55:27;;;;;;;505.42;478.48;;;22.30;99.90;;;;;;5074487;28;20183;-70
2021/06/25 13:57:52;;;;;;;510.92;483.80;;;22.40;99.90;;;;;;5074553;28;20612;-69
2021/06/25 14:00:26;;;;;;;481.05;456.08;;;22.50;99.90;;;;;;5074498;28;20190;-69
2021/06/25 14:02:51;;;;;;;477.05;452.38;;;22.80;99.90;;;;;;5073247;28;20227;-70
2021/06/25 14:05:17;;;;;;;575.10;542.97;;;23.10;99.90;;;;;;5074417;28;20186;-68
2021/06/25 14:07:57;;;;;;;676.25;635.95;;;23.50;99.90;;;;;;5074308;28;20239;-67
2021/06/25 14:10:24;;;;;;;459.63;435.95;;;23.70;99.90;;;;;;5074123;28;20194;-69
2021/06/25 14:12:49;;;;;;;426.83;405.33;;;23.80;99.90;;;;;;5073645;28;20184;-69
2021/06/25 14:15:16;;;;;;;271.15;257.83;;;23.70;99.90;;;;;;5074244;28;20472;-69
2021/06/25 14:17:43;;;;;;;403.08;383.45;;;23.20;99.90;;;;;;5074095;28;20558;-70
2021/06/25 14:20:09;;;;;;;574.30;542.85;;;22.90;99.90;;;;;;5074076;28;20199;-68
2021/06/25 14:22:35;;;;;;;421.02;400.15;;;23.20;99.90;;;;;;5074397;28;20624;-69
2021/06/25 14:25:00;;;;;;;376.38;358.13;;;23.50;99.90;;;;;;5074024;28;20179;-67
2021/06/25 14:27:27;;;;;;;609.10;574.60;;;23.50;99.90;;;;;;5073935;28;20222;-66
2021/06/25 14:29:52;;;;;;;478.75;454.27;;;23.60;99.90;;;;;;5072689;28;20198;-66
2021/06/25 14:32:18;;;;;;;516.58;489.17;;;23.70;99.90;;;;;;5074001;28;20179;-66
2021/06/25 14:34:44;;;;;;;515.00;488.10;;;23.80;99.90;;;;;;5073686;28;20198;-66
2021/06/25 14:37:09;;;;;;;658.83;619.88;;;24.00;99.90;;;;;;5074098;28;20613;-66
2021/06/25 14:39:35;;;;;;;495.23;469.35;;;24.20;99.90;;;;;;5073918;28;20624;-66
2021/06/25 14:42:00;;;;;;;375.08;357.10;;;24.50;99.90;;;;;;5072592;28;20530;-66
2021/06/25 14:44:26;;;;;;;213.85;204.15;;;24.50;99.90;;;;;;5073576;28;20560;-66
2021/06/25 14:46:52;;;;;;;501.58;474.98;;;24.50;99.90;;;;;;5073844;28;20214;-66
2021/06/25 14:49:18;;;;;;;558.38;527.53;;;24.50;99.90;;;;;;5073577;28;20179;-66
2021/06/25 14:51:44;;;;;;;573.55;540.83;;;24.60;99.90;;;;;;5073759;28;20246;-66
2021/06/25 14:54:10;;;;;;;510.67;483.25;;;24.60;99.90;;;;;;5073573;28;20754;-67
2021/06/25 14:56:35;;;;;;;388.42;369.00;;;24.60;99.90;;;;;;5073598;28;20613;-67
2021/06/25 14:59:01;;;;;;;372.55;354.13;;;24.50;99.90;;;;;;5073760;28;20160;-67
2021/06/25 15:01:26;;;;;;;340.25;324.05;;;24.50;99.90;;;;;;5073732;28;20636;-67
2021/06/25 15:03:52;;;;;;;264.25;251.65;;;24.60;99.90;;;;;;5073388;28;20219;-67
2021/06/25 15:06:18;;;;;;;279.00;265.90;;;24.60;99.90;;;;;;5072287;28;20174;-65
2021/06/25 15:08:43;;;;;;;331.80;315.95;;;24.60;99.90;;;;;;5073573;28;20555;-65
2021/06/25 15:11:11;;;;;;;285.83;272.63;;;24.60;99.90;;;;;;5073619;28;20620;-66
2021/06/25 15:13:36;;;;;;;291.50;277.95;;;24.80;99.90;;;;;;5073288;28;20279;-65
2021/06/25 15:16:03;;;;;;;155.35;148.10;;;24.80;99.90;;;;;;5073366;28;20250;-65
2021/06/25 15:18:29;;;;;;;268.48;256.02;;;24.70;99.90;;;;;;5073326;28;20194;-66
2021/06/25 15:20:54;;;;;;;310.45;295.23;;;24.50;99.90;;;;;;5072303;28;20168;-65
2021/06/25 15:23:20;;;;;;;309.83;295.52;;;24.10;99.90;;;;;;5073405;28;20233;-65
2021/06/25 15:25:46;;;;;;;442.95;420.95;;;23.80;99.90;;;;;;5076178;28;20179;-65
2021/06/25 15:28:13;;;;;;;451.30;428.48;;;23.50;99.90;;;;;;5077405;28;20176;-65
2021/06/25 15:30:39;;;;;;;671.80;632.25;;;23.30;99.90;;;;;;5077134;28;20206;-65
2021/06/25 15:33:05;;;;;;;419.80;399.42;;;23.30;99.90;;;;;;5075968;28;20668;-65
2021/06/25 15:35:31;;;;;;;722.92;679.13;;;23.50;99.90;;;;;;5077257;28;20175;-65
2021/06/25 15:38:00;;;;;;;464.40;441.10;;;23.50;99.90;;;;;;5077162;28;20168;-65
2021/06/25 15:40:26;;;;;;;397.70;378.20;;;23.50;99.90;;;;;;5077000;28;20166;-65
2021/06/25 15:42:51;;;;;;;533.60;505.30;;;23.40;99.90;;;;;;5077106;28;20168;-65
2021/06/25 15:45:19;;;;;;;372.63;354.70;;;23.20;99.90;;;;;;5077098;28;20205;-65
2021/06/25 15:47:45;;;;;;;456.80;434.17;;;23.00;99.90;;;;;;5076783;28;20648;-65
2021/06/25 15:50:11;;;;;;;538.88;510.05;;;22.90;99.90;;;;;;5076935;28;20183;-65
2021/06/25 15:52:37;;;;;;;597.05;563.80;;;22.80;99.90;;;;;;5076718;28;20656;-65
2021/06/25 15:55:04;;;;;;;572.85;541.75;;;22.70;99.90;;;;;;5076742;28;20168;-65
2021/06/25 15:57:29;;;;;;;518.35;491.15;;;23.10;99.90;;;;;;5076678;28;20259;-65
2021/06/25 15:59:55;;;;;;;586.38;554.05;;;22.50;99.90;;;;;;5076882;28;20239;-66
2021/06/25 16:02:21;;;;;;;665.33;626.00;;;22.50;99.90;;;;;;5076457;28;20647;-65
2021/06/25 16:04:46;;;;;;;662.25;623.33;;;22.40;99.90;;;;;;5076618;28;20174;-65
2021/06/25 16:07:12;;;;;;;543.90;514.75;;;22.50;99.90;;;;;;5076547;28;20159;-65
2021/06/25 16:09:47;;;;;;;508.73;482.25;;;22.50;99.90;;;;;;5076666;28;20175;-65
2021/06/25 16:12:13;;;;;;;503.63;477.08;;;22.40;99.90;;;;;;5076624;28;20163;-65
2021/06/25 16:14:38;;;;;;;515.53;488.27;;;22.30;99.90;;;;;;5076389;28;20195;-65
2021/06/25 16:17:04;;;;;;;465.35;441.77;;;22.20;99.90;;;;;;5076435;28;20168;-65
2021/06/25 16:19:29;;;;;;;546.20;516.10;;;22.00;99.90;;;;;;5076348;28;20176;-65
2021/06/25 16:21:55;;;;;;;516.55;489.17;;;22.00;99.90;;;;;;5075067;28;20172;-65
2021/06/25 16:24:21;;;;;;;585.80;553.13;;;22.00;99.90;;;;;;5076545;28;20593;-65
2021/06/25 16:26:47;;;;;;;580.70;548.17;;;22.00;99.90;;;;;;5076309;28;20184;-65
2021/06/25 16:29:13;;;;;;;626.72;590.30;;;22.00;99.90;;;;;;5076370;28;20168;-65
2021/06/25 16:31:39;;;;;;;748.35;702.45;;;22.30;99.90;;;;;;5075227;28;20289;-65
2021/06/25 16:34:05;;;;;;;640.78;603.88;;;22.80;99.90;;;;;;5076124;28;20217;-65
2021/06/25 16:36:33;;;;;;;463.05;439.95;;;23.30;99.90;;;;;;5075515;28;20164;-65
2021/06/25 16:38:58;;;;;;;719.03;675.63;;;23.60;99.90;;;;;;5077189;28;20170;-65
2021/06/25 16:41:24;;;;;;;645.22;607.60;;;24.10;99.90;;;;;;5076440;28;20168;-65
2021/06/25 16:43:49;;;;;;;641.92;604.10;;;24.40;99.90;;;;;;5075937;28;20251;-66
2021/06/25 16:46:15;;;;;;;434.95;412.75;;;24.80;99.90;;;;;;5075785;28;20184;-66
2021/06/25 16:48:41;;;;;;;415.27;394.63;;;25.10;99.90;;;;;;5075896;28;20486;-65
2021/06/25 16:51:07;;;;;;;257.75;245.80;;;25.10;99.90;;;;;;5076014;28;20210;-66
2021/06/25 16:53:33;;;;;;;351.17;334.38;;;25.10;99.90;;;;;;5075636;28;20195;-66
2021/06/25 16:55:58;;;;;;;270.73;258.30;;;25.20;99.90;;;;;;5075684;28;20172;-66
2021/06/25 16:58:24;;;;;;;296.50;282.58;;;25.20;99.90;;;;;;5075790;28;20160;-66
2021/06/25 17:00:50;;;;;;;181.32;173.00;;;25.10;99.90;;;;;;5075474;28;20200;-66
2021/06/25 17:03:16;;;;;;;378.13;359.50;;;25.00;99.90;;;;;;5075398;28;20222;-66
2021/06/25 17:05:42;;;;;;;208.65;199.13;;;25.00;99.90;;;;;;5075564;28;20164;-65
2021/06/25 17:08:09;;;;;;;144.23;137.57;;;25.00;99.90;;;;;;5075698;28;20174;-66
2021/06/25 17:10:36;;;;;;;101.70;97.03;;;25.00;99.90;;;;;;5075416;28;20255;-66
2021/06/25 17:13:07;;;;;;;182.27;174.00;;;25.00;99.90;;;;;;5075337;28;20215;-66
2021/06/25 17:15:34;;;;;;;191.63;182.48;;;24.90;99.90;;;;;;5075207;28;20246;-66
2021/06/25 17:17:59;;;;;;;331.90;316.13;;;24.90;99.90;;;;;;5075299;28;20167;-66
2021/06/25 17:20:25;;;;;;;315.45;300.33;;;25.00;99.90;;;;;;5073916;28;20183;-66
2021/06/25 17:22:51;;;;;;;313.92;298.98;;;25.20;99.90;;;;;;5075122;28;20306;-66
2021/06/25 17:25:17;;;;;;;136.48;130.15;;;25.20;99.90;;;;;;5075218;28;20251;-66
2021/06/25 17:27:42;;;;;;;164.25;156.43;;;25.20;99.90;;;;;;5075060;28;20254;-66
2021/06/25 17:30:08;;;;;;;231.98;221.32;;;25.20;99.90;;;;;;5075017;28;20167;-66
2021/06/25 17:32:34;;;;;;;251.68;239.80;;;25.00;99.90;;;;;;5074908;28;20172;-66
2021/06/25 17:35:00;;;;;;;176.38;168.30;;;24.80;99.90;;;;;;5074855;28;20163;-66
2021/06/25 17:37:25;;;;;;;416.13;395.67;;;24.50;99.90;;;;;;5074771;28;20346;-66
2021/06/25 17:39:51;;;;;;;302.63;288.50;;;24.30;99.90;;;;;;5074318;28;20213;-66
2021/06/25 17:42:16;;;;;;;164.38;156.75;;;24.10;99.90;;;;;;5074543;28;20669;-66
2021/06/25 17:44:42;;;;;;;214.52;204.77;;;23.70;99.90;;;;;;5074476;28;20642;-66
2021/06/25 17:47:07;;;;;;;329.67;314.45;;;23.50;99.90;;;;;;5073593;28;20168;-66
2021/06/25 17:49:34;;;;;;;392.15;373.38;;;23.40;99.90;;;;;;5074344;28;20172;-66
2021/06/25 17:52:00;;;;;;;290.10;276.88;;;23.40;99.90;;;;;;5074175;28;20172;-66
2021/06/25 17:54:26;;;;;;;412.33;392.40;;;23.20;99.90;;;;;;5074001;28;20196;-66
2021/06/25 17:56:51;;;;;;;396.60;377.52;;;23.10;99.90;;;;;;5074090;28;20263;-66
2021/06/25 17:59:17;;;;;;;477.77;453.40;;;23.00;99.90;;;;;;5073998;28;20168;-66
2021/06/25 18:01:42;;;;;;;435.05;413.30;;;22.90;99.90;;;;;;5073966;28;20172;-66
2021/06/25 18:04:08;;;;;;;419.67;399.23;;;22.70;99.90;;;;;;5072420;28;20211;-66
2021/06/25 18:06:34;;;;;;;484.88;460.23;;;22.60;99.90;;;;;;5073999;28;20168;-66
2021/06/25 18:08:59;;;;;;;482.02;457.23;;;22.50;99.90;;;;;;5072596;28;20254;-66
2021/06/25 18:11:26;;;;;;;445.75;423.58;;;22.40;99.90;;;;;;5073844;28;20194;-66
2021/06/25 18:13:52;;;;;;;520.00;492.55;;;22.30;99.90;;;;;;5073674;28;20198;-66
2021/06/25 18:16:18;;;;;;;517.80;490.40;;;22.20;99.90;;;;;;5073674;28;20168;-66
2021/06/25 18:18:44;;;;;;;550.90;521.05;;;22.10;99.90;;;;;;5073600;28;20398;-66
2021/06/25 18:21:10;;;;;;;538.78;509.60;;;22.00;99.90;;;;;;5073679;28;20172;-66
2021/06/25 18:23:36;;;;;;;507.63;480.70;;;21.90;99.90;;;;;;5073644;28;20182;-66
2021/06/25 18:26:02;;;;;;;602.00;567.63;;;21.80;99.90;;;;;;5073710;28;20164;-66
2021/06/25 18:28:27;;;;;;;569.95;538.63;;;21.80;99.90;;;;;;5073503;28;20629;-66
2021/06/25 18:30:53;;;;;;;585.33;552.45;;;21.70;99.90;;;;;;5073486;28;20667;-66
2021/06/25 18:33:19;;;;;;;668.45;627.83;;;21.70;99.90;;;;;;5073271;28;20238;-66
2021/06/25 18:35:45;;;;;;;755.30;708.15;;;21.70;99.90;;;;;;5073436;28;20187;-66
2021/06/25 18:38:11;;;;;;;733.30;687.95;;;21.70;99.90;;;;;;5073394;28;20236;-66
2021/06/25 18:40:37;;;;;;;739.20;693.58;;;21.60;99.90;;;;;;5073301;28;20691;-66
2021/06/25 18:43:03;;;;;;;762.85;715.22;;;21.50;99.90;;;;;;5073405;28;20179;-65
2021/06/25 18:45:29;;;;;;;774.08;725.38;;;21.50;99.90;;;;;;5073397;28;20184;-66
2021/06/25 18:47:55;;;;;;;793.78;743.70;;;21.30;99.90;;;;;;5073302;28;20528;-65
2021/06/25 18:50:21;;;;;;;803.72;752.80;;;21.20;99.90;;;;;;5073386;28;20263;-66
2021/06/25 18:52:47;;;;;;;795.42;745.28;;;21.00;99.90;;;;;;5073248;28;20207;-66
2021/06/25 18:55:13;;;;;;;788.08;738.45;;;20.90;99.90;;;;;;5073222;28;20168;-65
2021/06/25 18:57:39;;;;;;;848.60;793.92;;;20.80;99.90;;;;;;5073215;28;20167;-66
2021/06/25 19:00:13;;;;;;;842.35;788.30;;;20.70;99.90;;;;;;5071728;28;20508;-66
2021/06/25 19:02:39;;;;;;;875.47;818.38;;;20.60;99.90;;;;;;5072895;28;20227;-66
2021/06/25 19:05:06;;;;;;;906.80;846.75;;;20.50;99.90;;;;;;5073147;28;20186;-66
2021/06/25 19:07:31;;;;;;;904.78;844.83;;;20.40;99.90;;;;;;5073067;28;20656;-66
2021/06/25 19:09:57;;;;;;;888.67;830.15;;;20.30;99.90;;;;;;5073103;28;20168;-65
2021/06/25 19:12:23;;;;;;;918.47;857.85;;;20.10;99.90;;;;;;5073063;28;20160;-65
